sensor_id;sensor_type;location;lat;lon;timestamp;temperature;humidity
1155;DHT22;566;48.414;9.118;2022-10-31T00:00:41;12.00;94.90
1155;DHT22;566;48.414;9.118;2022-10-31T00:03:07;12.00;95.30
1155;DHT22;566;48.414;9.118;2022-10-31T00:05:33;12.00;95.60
1155;DHT22;566;48.414;9.118;2022-10-31T00:07:59;11.90;95.90
1155;DHT22;566;48.414;9.118;2022-10-31T00:10:24;11.80;96.00
1155;DHT22;566;48.414;9.118;2022-10-31T00:12:51;11.70;96.20
1155;DHT22;566;48.414;9.118;2022-10-31T00:15:17;11.50;96.50
1155;DHT22;566;48.414;9.118;2022-10-31T00:17:43;11.30;97.00
1155;DHT22;566;48.414;9.118;2022-10-31T00:20:09;11.20;97.30
1155;DHT22;566;48.414;9.118;2022-10-31T00:22:35;11.20;97.30
1155;DHT22;566;48.414;9.118;2022-10-31T00:25:01;11.50;97.80
1155;DHT22;566;48.414;9.118;2022-10-31T00:27:26;11.70;97.60
1155;DHT22;566;48.414;9.118;2022-10-31T00:29:52;11.80;97.60
1155;DHT22;566;48.414;9.118;2022-10-31T00:32:18;11.90;97.60
1155;DHT22;566;48.414;9.118;2022-10-31T00:34:44;12.10;97.20
1155;DHT22;566;48.414;9.118;2022-10-31T00:37:10;12.10;97.00
1155;DHT22;566;48.414;9.118;2022-10-31T00:39:36;12.00;97.10
1155;DHT22;566;48.414;9.118;2022-10-31T00:42:02;12.00;97.20
1155;DHT22;566;48.414;9.118;2022-10-31T00:44:27;12.00;97.30
1155;DHT22;566;48.414;9.118;2022-10-31T00:46:53;12.00;97.30
1155;DHT22;566;48.414;9.118;2022-10-31T00:49:20;12.00;97.40
1155;DHT22;566;48.414;9.118;2022-10-31T00:51:46;11.90;97.60
1155;DHT22;566;48.414;9.118;2022-10-31T00:54:12;11.80;97.60
1155;DHT22;566;48.414;9.118;2022-10-31T00:56:38;11.70;97.80
1155;DHT22;566;48.414;9.118;2022-10-31T00:59:07;11.70;97.90
1155;DHT22;566;48.414;9.118;2022-10-31T01:01:33;11.70;97.90
1155;DHT22;566;48.414;9.118;2022-10-31T01:03:58;11.60;97.70
1155;DHT22;566;48.414;9.118;2022-10-31T01:06:24;11.50;97.80
1155;DHT22;566;48.414;9.118;2022-10-31T01:08:50;11.50;97.90
1155;DHT22;566;48.414;9.118;2022-10-31T01:11:22;11.40;97.90
1155;DHT22;566;48.414;9.118;2022-10-31T01:13:49;11.30;97.60
1155;DHT22;566;48.414;9.118;2022-10-31T01:16:18;11.30;97.80
1155;DHT22;566;48.414;9.118;2022-10-31T01:18:44;11.30;97.90
1155;DHT22;566;48.414;9.118;2022-10-31T01:21:19;11.50;98.00
1155;DHT22;566;48.414;9.118;2022-10-31T01:23:45;11.50;98.00
1155;DHT22;566;48.414;9.118;2022-10-31T01:26:17;11.50;98.00
1155;DHT22;566;48.414;9.118;2022-10-31T01:29:05;11.50;98.00
1155;DHT22;566;48.414;9.118;2022-10-31T01:31:38;11.40;98.00
1155;DHT22;566;48.414;9.118;2022-10-31T01:34:05;11.30;97.90
1155;DHT22;566;48.414;9.118;2022-10-31T01:36:34;11.20;97.90
1155;DHT22;566;48.414;9.118;2022-10-31T01:39:04;11.20;97.70
1155;DHT22;566;48.414;9.118;2022-10-31T01:41:33;11.10;97.50
1155;DHT22;566;48.414;9.118;2022-10-31T01:44:00;11.10;97.50
1155;DHT22;566;48.414;9.118;2022-10-31T01:46:34;11.10;97.60
1155;DHT22;566;48.414;9.118;2022-10-31T01:49:02;11.10;97.20
1155;DHT22;566;48.414;9.118;2022-10-31T01:51:33;11.20;97.50
1155;DHT22;566;48.414;9.118;2022-10-31T01:54:07;11.20;97.50
1155;DHT22;566;48.414;9.118;2022-10-31T01:56:36;11.30;97.60
1155;DHT22;566;48.414;9.118;2022-10-31T01:59:05;11.30;97.70
1155;DHT22;566;48.414;9.118;2022-10-31T02:01:32;11.30;97.60
1155;DHT22;566;48.414;9.118;2022-10-31T02:03:58;11.30;97.80
1155;DHT22;566;48.414;9.118;2022-10-31T02:06:45;11.20;97.50
1155;DHT22;566;48.414;9.118;2022-10-31T02:09:14;11.20;97.70
1155;DHT22;566;48.414;9.118;2022-10-31T02:11:41;11.10;97.50
1155;DHT22;566;48.414;9.118;2022-10-31T02:14:07;11.00;97.50
1155;DHT22;566;48.414;9.118;2022-10-31T02:16:33;11.10;97.50
1155;DHT22;566;48.414;9.118;2022-10-31T02:19:01;11.20;97.80
1155;DHT22;566;48.414;9.118;2022-10-31T02:27:42;11.00;97.80
1155;DHT22;566;48.414;9.118;2022-10-31T02:36:27;10.90;97.30
1155;DHT22;566;48.414;9.118;2022-10-31T02:39:18;11.00;97.60
1155;DHT22;566;48.414;9.118;2022-10-31T02:44:45;11.10;98.00
1155;DHT22;566;48.414;9.118;2022-10-31T02:47:16;11.10;98.00
1155;DHT22;566;48.414;9.118;2022-10-31T02:52:36;11.20;98.00
1155;DHT22;566;48.414;9.118;2022-10-31T02:58:06;11.20;98.00
1155;DHT22;566;48.414;9.118;2022-10-31T03:03:32;11.10;98.00
1155;DHT22;566;48.414;9.118;2022-10-31T03:06:07;11.10;98.00
1155;DHT22;566;48.414;9.118;2022-10-31T03:11:07;11.00;98.00
1155;DHT22;566;48.414;9.118;2022-10-31T03:14:04;10.90;98.00
1155;DHT22;566;48.414;9.118;2022-10-31T03:16:44;10.80;98.00
1155;DHT22;566;48.414;9.118;2022-10-31T03:21:57;10.60;98.00
1155;DHT22;566;48.414;9.118;2022-10-31T03:24:32;10.50;98.00
1155;DHT22;566;48.414;9.118;2022-10-31T03:27:00;10.40;98.00
1155;DHT22;566;48.414;9.118;2022-10-31T03:29:29;10.30;98.00
1155;DHT22;566;48.414;9.118;2022-10-31T03:32:05;10.20;98.00
1155;DHT22;566;48.414;9.118;2022-10-31T03:37:55;10.20;98.00
1155;DHT22;566;48.414;9.118;2022-10-31T03:40:23;10.20;98.00
1155;DHT22;566;48.414;9.118;2022-10-31T03:43:00;10.30;98.00
1155;DHT22;566;48.414;9.118;2022-10-31T03:45:30;10.50;98.00
1155;DHT22;566;48.414;9.118;2022-10-31T03:47:59;10.60;98.00
1155;DHT22;566;48.414;9.118;2022-10-31T03:50:31;10.70;98.00
1155;DHT22;566;48.414;9.118;2022-10-31T03:53:13;10.60;98.00
1155;DHT22;566;48.414;9.118;2022-10-31T03:56:02;10.70;98.00
1155;DHT22;566;48.414;9.118;2022-10-31T03:58:34;10.60;98.00
1155;DHT22;566;48.414;9.118;2022-10-31T04:01:05;10.40;98.00
1155;DHT22;566;48.414;9.118;2022-10-31T04:03:34;10.20;98.00
1155;DHT22;566;48.414;9.118;2022-10-31T04:06:12;10.00;98.00
1155;DHT22;566;48.414;9.118;2022-10-31T04:08:48;9.90;98.00
1155;DHT22;566;48.414;9.118;2022-10-31T04:11:19;9.90;98.00
1155;DHT22;566;48.414;9.118;2022-10-31T04:13:48;9.80;97.90
1155;DHT22;566;48.414;9.118;2022-10-31T04:16:15;9.80;97.70
1155;DHT22;566;48.414;9.118;2022-10-31T04:18:42;9.90;97.90
1155;DHT22;566;48.414;9.118;2022-10-31T04:21:08;9.90;97.80
1155;DHT22;566;48.414;9.118;2022-10-31T04:23:35;9.90;98.00
1155;DHT22;566;48.414;9.118;2022-10-31T04:26:02;9.70;97.90
1155;DHT22;566;48.414;9.118;2022-10-31T04:28:27;9.60;97.60
1155;DHT22;566;48.414;9.118;2022-10-31T04:30:53;9.50;97.10
1155;DHT22;566;48.414;9.118;2022-10-31T04:33:19;9.50;96.60
1155;DHT22;566;48.414;9.118;2022-10-31T04:35:45;9.40;96.70
1155;DHT22;566;48.414;9.118;2022-10-31T04:38:14;9.30;96.40
1155;DHT22;566;48.414;9.118;2022-10-31T04:40:39;9.20;96.10
1155;DHT22;566;48.414;9.118;2022-10-31T04:43:05;9.20;95.30
1155;DHT22;566;48.414;9.118;2022-10-31T04:45:31;9.30;95.30
1155;DHT22;566;48.414;9.118;2022-10-31T04:47:56;9.30;96.10
1155;DHT22;566;48.414;9.118;2022-10-31T04:50:22;9.20;96.10
1155;DHT22;566;48.414;9.118;2022-10-31T04:52:47;9.10;96.10
1155;DHT22;566;48.414;9.118;2022-10-31T04:55:14;9.10;95.80
1155;DHT22;566;48.414;9.118;2022-10-31T04:57:41;9.10;95.90
1155;DHT22;566;48.414;9.118;2022-10-31T05:00:08;9.20;96.20
1155;DHT22;566;48.414;9.118;2022-10-31T05:02:33;9.40;96.90
1155;DHT22;566;48.414;9.118;2022-10-31T05:04:59;9.50;97.30
1155;DHT22;566;48.414;9.118;2022-10-31T05:07:25;9.60;97.80
1155;DHT22;566;48.414;9.118;2022-10-31T05:09:51;9.70;98.00
1155;DHT22;566;48.414;9.118;2022-10-31T05:12:16;9.60;98.00
1155;DHT22;566;48.414;9.118;2022-10-31T05:14:42;9.50;97.80
1155;DHT22;566;48.414;9.118;2022-10-31T05:17:07;9.50;97.80
1155;DHT22;566;48.414;9.118;2022-10-31T05:19:33;9.50;97.10
1155;DHT22;566;48.414;9.118;2022-10-31T05:21:59;9.50;97.10
1155;DHT22;566;48.414;9.118;2022-10-31T05:24:27;9.50;96.80
1155;DHT22;566;48.414;9.118;2022-10-31T05:26:52;9.50;97.10
1155;DHT22;566;48.414;9.118;2022-10-31T05:29:18;9.40;97.50
1155;DHT22;566;48.414;9.118;2022-10-31T05:31:44;9.20;97.00
1155;DHT22;566;48.414;9.118;2022-10-31T05:34:09;9.10;96.60
1155;DHT22;566;48.414;9.118;2022-10-31T05:36:35;9.10;96.50
1155;DHT22;566;48.414;9.118;2022-10-31T05:39:01;9.10;96.20
1155;DHT22;566;48.414;9.118;2022-10-31T05:41:29;9.10;96.70
1155;DHT22;566;48.414;9.118;2022-10-31T05:43:55;9.10;96.80
1155;DHT22;566;48.414;9.118;2022-10-31T05:46:20;9.20;97.20
1155;DHT22;566;48.414;9.118;2022-10-31T05:48:49;9.20;97.20
1155;DHT22;566;48.414;9.118;2022-10-31T05:51:15;9.10;97.40
1155;DHT22;566;48.414;9.118;2022-10-31T05:53:40;9.20;97.90
1155;DHT22;566;48.414;9.118;2022-10-31T05:56:06;9.20;98.00
1155;DHT22;566;48.414;9.118;2022-10-31T05:58:32;9.20;98.00
1155;DHT22;566;48.414;9.118;2022-10-31T06:00:57;9.10;97.90
1155;DHT22;566;48.414;9.118;2022-10-31T06:03:23;9.00;97.50
1155;DHT22;566;48.414;9.118;2022-10-31T06:05:49;9.00;97.40
1155;DHT22;566;48.414;9.118;2022-10-31T06:08:14;8.90;97.00
1155;DHT22;566;48.414;9.118;2022-10-31T06:10:40;8.80;96.80
1155;DHT22;566;48.414;9.118;2022-10-31T06:13:05;9.00;96.90
1155;DHT22;566;48.414;9.118;2022-10-31T06:15:32;9.10;97.30
1155;DHT22;566;48.414;9.118;2022-10-31T06:18:03;9.20;97.30
1155;DHT22;566;48.414;9.118;2022-10-31T06:20:33;9.30;97.90
1155;DHT22;566;48.414;9.118;2022-10-31T06:22:58;9.40;98.00
1155;DHT22;566;48.414;9.118;2022-10-31T06:25:25;9.60;98.00
1155;DHT22;566;48.414;9.118;2022-10-31T06:27:51;9.60;98.00
1155;DHT22;566;48.414;9.118;2022-10-31T06:30:17;9.60;98.00
1155;DHT22;566;48.414;9.118;2022-10-31T06:32:42;9.40;98.00
1155;DHT22;566;48.414;9.118;2022-10-31T06:35:09;9.30;98.00
1155;DHT22;566;48.414;9.118;2022-10-31T06:37:34;9.20;97.80
1155;DHT22;566;48.414;9.118;2022-10-31T06:40:00;9.30;98.00
1155;DHT22;566;48.414;9.118;2022-10-31T06:42:26;9.40;98.00
1155;DHT22;566;48.414;9.118;2022-10-31T06:44:51;9.40;98.00
1155;DHT22;566;48.414;9.118;2022-10-31T06:47:20;9.50;98.00
1155;DHT22;566;48.414;9.118;2022-10-31T06:49:46;9.60;98.00
1155;DHT22;566;48.414;9.118;2022-10-31T06:52:14;9.80;98.00
1155;DHT22;566;48.414;9.118;2022-10-31T06:54:40;9.90;98.00
1155;DHT22;566;48.414;9.118;2022-10-31T06:57:06;10.10;98.00
1155;DHT22;566;48.414;9.118;2022-10-31T06:59:31;10.10;98.00
1155;DHT22;566;48.414;9.118;2022-10-31T07:01:58;10.10;98.00
1155;DHT22;566;48.414;9.118;2022-10-31T07:04:26;10.20;98.00
1155;DHT22;566;48.414;9.118;2022-10-31T07:06:52;10.30;98.00
1155;DHT22;566;48.414;9.118;2022-10-31T07:09:21;10.40;98.00
1155;DHT22;566;48.414;9.118;2022-10-31T07:11:47;10.60;98.00
1155;DHT22;566;48.414;9.118;2022-10-31T07:14:12;10.70;98.00
1155;DHT22;566;48.414;9.118;2022-10-31T07:16:38;10.80;98.00
1155;DHT22;566;48.414;9.118;2022-10-31T07:19:03;11.00;98.00
1155;DHT22;566;48.414;9.118;2022-10-31T07:21:29;11.30;98.00
1155;DHT22;566;48.414;9.118;2022-10-31T07:26:25;11.60;98.00
1155;DHT22;566;48.414;9.118;2022-10-31T07:28:51;11.80;98.00
1155;DHT22;566;48.414;9.118;2022-10-31T07:31:17;12.00;98.00
1155;DHT22;566;48.414;9.118;2022-10-31T07:33:45;12.20;98.00
1155;DHT22;566;48.414;9.118;2022-10-31T07:36:11;12.40;98.00
1155;DHT22;566;48.414;9.118;2022-10-31T07:38:36;12.70;97.90
1155;DHT22;566;48.414;9.118;2022-10-31T07:41:02;12.80;97.60
1155;DHT22;566;48.414;9.118;2022-10-31T07:43:28;12.90;97.40
1155;DHT22;566;48.414;9.118;2022-10-31T07:45:53;13.00;97.60
1155;DHT22;566;48.414;9.118;2022-10-31T07:48:19;13.20;97.00
1155;DHT22;566;48.414;9.118;2022-10-31T07:50:45;13.30;97.00
1155;DHT22;566;48.414;9.118;2022-10-31T07:53:15;13.70;95.20
1155;DHT22;566;48.414;9.118;2022-10-31T07:55:42;14.00;94.10
1155;DHT22;566;48.414;9.118;2022-10-31T07:58:13;14.40;92.70
1155;DHT22;566;48.414;9.118;2022-10-31T08:00:41;14.70;92.30
1155;DHT22;566;48.414;9.118;2022-10-31T08:05:34;14.90;88.90
1155;DHT22;566;48.414;9.118;2022-10-31T08:08:00;14.70;89.80
1155;DHT22;566;48.414;9.118;2022-10-31T08:10:27;14.40;90.00
1155;DHT22;566;48.414;9.118;2022-10-31T08:13:14;14.20;90.70
1155;DHT22;566;48.414;9.118;2022-10-31T08:15:40;14.20;90.00
1155;DHT22;566;48.414;9.118;2022-10-31T08:18:13;14.10;90.80
1155;DHT22;566;48.414;9.118;2022-10-31T08:20:40;14.20;90.40
1155;DHT22;566;48.414;9.118;2022-10-31T08:23:06;14.60;89.50
1155;DHT22;566;48.414;9.118;2022-10-31T08:25:33;14.90;87.70
1155;DHT22;566;48.414;9.118;2022-10-31T08:27:59;15.20;87.20
1155;DHT22;566;48.414;9.118;2022-10-31T08:30:27;15.40;86.30
1155;DHT22;566;48.414;9.118;2022-10-31T08:33:01;15.60;86.70
1155;DHT22;566;48.414;9.118;2022-10-31T08:35:27;16.00;85.40
1155;DHT22;566;48.414;9.118;2022-10-31T08:37:54;16.50;83.80
1155;DHT22;566;48.414;9.118;2022-10-31T08:40:20;16.70;82.70
1155;DHT22;566;48.414;9.118;2022-10-31T08:42:46;17.10;82.40
1155;DHT22;566;48.414;9.118;2022-10-31T08:45:12;17.10;81.30
1155;DHT22;566;48.414;9.118;2022-10-31T08:47:38;17.10;81.30
1155;DHT22;566;48.414;9.118;2022-10-31T08:50:05;17.00;81.30
1155;DHT22;566;48.414;9.118;2022-10-31T08:52:34;16.60;82.30
1155;DHT22;566;48.414;9.118;2022-10-31T08:55:00;16.40;83.10
1155;DHT22;566;48.414;9.118;2022-10-31T08:57:25;16.30;83.30
1155;DHT22;566;48.414;9.118;2022-10-31T08:59:51;15.90;83.30
1155;DHT22;566;48.414;9.118;2022-10-31T09:02:17;15.80;83.80
1155;DHT22;566;48.414;9.118;2022-10-31T09:04:44;15.80;83.70
1155;DHT22;566;48.414;9.118;2022-10-31T09:07:11;16.10;83.40
1155;DHT22;566;48.414;9.118;2022-10-31T09:09:37;16.50;82.60
1155;DHT22;566;48.414;9.118;2022-10-31T09:12:03;17.00;80.80
1155;DHT22;566;48.414;9.118;2022-10-31T09:14:29;17.20;80.80
1155;DHT22;566;48.414;9.118;2022-10-31T09:16:54;17.50;79.80
1155;DHT22;566;48.414;9.118;2022-10-31T09:19:20;17.80;78.70
1155;DHT22;566;48.414;9.118;2022-10-31T09:21:51;18.00;78.40
1155;DHT22;566;48.414;9.118;2022-10-31T09:24:17;18.20;77.60
1155;DHT22;566;48.414;9.118;2022-10-31T09:26:42;18.20;77.00
1155;DHT22;566;48.414;9.118;2022-10-31T09:29:08;18.50;76.70
1155;DHT22;566;48.414;9.118;2022-10-31T09:31:37;18.90;75.60
1155;DHT22;566;48.414;9.118;2022-10-31T09:34:03;18.90;76.20
1155;DHT22;566;48.414;9.118;2022-10-31T09:36:29;19.20;74.80
1155;DHT22;566;48.414;9.118;2022-10-31T09:38:55;19.80;73.90
1155;DHT22;566;48.414;9.118;2022-10-31T09:44:20;19.70;73.00
1155;DHT22;566;48.414;9.118;2022-10-31T09:50:02;19.30;75.70
1155;DHT22;566;48.414;9.118;2022-10-31T09:52:34;20.00;74.60
1155;DHT22;566;48.414;9.118;2022-10-31T09:55:52;20.60;72.90
1155;DHT22;566;48.414;9.118;2022-10-31T09:58:32;20.70;72.90
1155;DHT22;566;48.414;9.118;2022-10-31T10:01:01;21.40;71.00
1155;DHT22;566;48.414;9.118;2022-10-31T10:03:31;21.10;72.00
1155;DHT22;566;48.414;9.118;2022-10-31T10:08:35;21.30;69.80
1155;DHT22;566;48.414;9.118;2022-10-31T10:11:39;21.30;69.20
1155;DHT22;566;48.414;9.118;2022-10-31T10:22:58;20.00;72.80
1155;DHT22;566;48.414;9.118;2022-10-31T10:25:40;19.80;73.70
1155;DHT22;566;48.414;9.118;2022-10-31T10:28:27;19.60;73.70
1155;DHT22;566;48.414;9.118;2022-10-31T10:36:36;20.30;72.00
1155;DHT22;566;48.414;9.118;2022-10-31T10:39:09;20.50;72.50
1155;DHT22;566;48.414;9.118;2022-10-31T10:41:36;20.50;72.90
1155;DHT22;566;48.414;9.118;2022-10-31T10:44:08;20.60;73.10
1155;DHT22;566;48.414;9.118;2022-10-31T10:46:57;21.20;72.50
1155;DHT22;566;48.414;9.118;2022-10-31T10:49:50;22.10;71.60
1155;DHT22;566;48.414;9.118;2022-10-31T10:58:02;23.10;68.60
1155;DHT22;566;48.414;9.118;2022-10-31T11:02:57;22.60;69.20
1155;DHT22;566;48.414;9.118;2022-10-31T11:05:50;22.40;69.70
1155;DHT22;566;48.414;9.118;2022-10-31T11:08:32;22.10;70.30
1155;DHT22;566;48.414;9.118;2022-10-31T11:11:08;21.80;71.60
1155;DHT22;566;48.414;9.118;2022-10-31T11:13:36;21.80;72.50
1155;DHT22;566;48.414;9.118;2022-10-31T11:18:39;22.20;72.80
1155;DHT22;566;48.414;9.118;2022-10-31T11:21:20;22.30;71.10
1155;DHT22;566;48.414;9.118;2022-10-31T11:23:46;22.00;72.30
1155;DHT22;566;48.414;9.118;2022-10-31T11:26:20;21.60;73.00
1155;DHT22;566;48.414;9.118;2022-10-31T11:28:59;21.40;74.20
1155;DHT22;566;48.414;9.118;2022-10-31T11:31:27;21.50;74.10
1155;DHT22;566;48.414;9.118;2022-10-31T11:34:04;21.40;74.80
1155;DHT22;566;48.414;9.118;2022-10-31T11:36:33;21.60;74.20
1155;DHT22;566;48.414;9.118;2022-10-31T11:39:01;21.60;74.90
1155;DHT22;566;48.414;9.118;2022-10-31T11:41:36;21.90;74.00
1155;DHT22;566;48.414;9.118;2022-10-31T11:44:12;21.90;73.80
1155;DHT22;566;48.414;9.118;2022-10-31T11:46:41;22.40;73.30
1155;DHT22;566;48.414;9.118;2022-10-31T11:49:31;22.50;72.50
1155;DHT22;566;48.414;9.118;2022-10-31T11:52:02;22.00;73.60
1155;DHT22;566;48.414;9.118;2022-10-31T11:54:34;21.50;74.70
1155;DHT22;566;48.414;9.118;2022-10-31T11:57:04;20.90;76.80
1155;DHT22;566;48.414;9.118;2022-10-31T11:59:31;20.40;78.00
1155;DHT22;566;48.414;9.118;2022-10-31T12:02:00;20.00;79.50
1155;DHT22;566;48.414;9.118;2022-10-31T12:04:40;19.80;80.60
1155;DHT22;566;48.414;9.118;2022-10-31T12:07:07;19.60;80.70
1155;DHT22;566;48.414;9.118;2022-10-31T12:09:35;19.30;81.40
1155;DHT22;566;48.414;9.118;2022-10-31T12:12:09;19.30;81.90
1155;DHT22;566;48.414;9.118;2022-10-31T12:17:50;19.20;82.00
1155;DHT22;566;48.414;9.118;2022-10-31T12:20:59;19.00;83.20
1155;DHT22;566;48.414;9.118;2022-10-31T12:24:13;18.90;83.40
1155;DHT22;566;48.414;9.118;2022-10-31T12:26:38;18.80;83.50
1155;DHT22;566;48.414;9.118;2022-10-31T12:30:11;18.80;83.90
1155;DHT22;566;48.414;9.118;2022-10-31T12:32:32;18.60;84.10
1155;DHT22;566;48.414;9.118;2022-10-31T12:37:53;18.40;85.50
1155;DHT22;566;48.414;9.118;2022-10-31T12:45:53;18.30;85.20
1155;DHT22;566;48.414;9.118;2022-10-31T12:59:33;18.60;85.20
1155;DHT22;566;48.414;9.118;2022-10-31T13:04:49;18.90;85.10
1155;DHT22;566;48.414;9.118;2022-10-31T13:10:51;19.10;82.00
1155;DHT22;566;48.414;9.118;2022-10-31T13:13:19;19.20;81.70
1155;DHT22;566;48.414;9.118;2022-10-31T13:15:57;19.40;82.10
1155;DHT22;566;48.414;9.118;2022-10-31T13:18:35;19.70;81.80
1155;DHT22;566;48.414;9.118;2022-10-31T13:21:08;19.80;79.80
1155;DHT22;566;48.414;9.118;2022-10-31T13:23:37;19.60;81.00
1155;DHT22;566;48.414;9.118;2022-10-31T13:26:10;19.30;80.80
1155;DHT22;566;48.414;9.118;2022-10-31T13:29:05;19.20;81.20
1155;DHT22;566;48.414;9.118;2022-10-31T13:31:34;19.30;80.80
1155;DHT22;566;48.414;9.118;2022-10-31T13:34:13;19.80;80.30
1155;DHT22;566;48.414;9.118;2022-10-31T13:36:43;20.10;78.80
1155;DHT22;566;48.414;9.118;2022-10-31T13:39:49;20.20;77.60
1155;DHT22;566;48.414;9.118;2022-10-31T13:44:44;20.60;78.10
1155;DHT22;566;48.414;9.118;2022-10-31T13:47:28;20.90;77.50
1155;DHT22;566;48.414;9.118;2022-10-31T13:50:28;20.80;76.10
1155;DHT22;566;48.414;9.118;2022-10-31T13:52:52;20.70;76.90
1155;DHT22;566;48.414;9.118;2022-10-31T13:55:48;20.70;77.40
1155;DHT22;566;48.414;9.118;2022-10-31T13:58:26;21.20;76.00
1155;DHT22;566;48.414;9.118;2022-10-31T14:01:24;21.60;74.80
1155;DHT22;566;48.414;9.118;2022-10-31T14:04:05;21.80;73.40
1155;DHT22;566;48.414;9.118;2022-10-31T14:06:58;22.10;73.80
1155;DHT22;566;48.414;9.118;2022-10-31T14:12:42;22.00;74.60
1155;DHT22;566;48.414;9.118;2022-10-31T14:15:18;21.60;75.90
1155;DHT22;566;48.414;9.118;2022-10-31T14:18:05;21.50;76.70
1155;DHT22;566;48.414;9.118;2022-10-31T14:20:42;21.30;76.30
1155;DHT22;566;48.414;9.118;2022-10-31T14:26:29;21.10;78.00
1155;DHT22;566;48.414;9.118;2022-10-31T14:32:03;21.50;76.10
1155;DHT22;566;48.414;9.118;2022-10-31T14:34:36;21.40;76.60
1155;DHT22;566;48.414;9.118;2022-10-31T14:45:53;21.20;79.00
1155;DHT22;566;48.414;9.118;2022-10-31T14:51:00;21.20;79.90
1155;DHT22;566;48.414;9.118;2022-10-31T14:53:33;21.40;78.40
1155;DHT22;566;48.414;9.118;2022-10-31T14:55:59;21.40;79.00
1155;DHT22;566;48.414;9.118;2022-10-31T14:58:39;21.20;79.20
1155;DHT22;566;48.414;9.118;2022-10-31T15:01:06;21.00;80.70
1155;DHT22;566;48.414;9.118;2022-10-31T15:03:38;20.50;80.90
1155;DHT22;566;48.414;9.118;2022-10-31T15:06:15;19.60;83.60
1155;DHT22;566;48.414;9.118;2022-10-31T15:08:53;18.90;85.20
1155;DHT22;566;48.414;9.118;2022-10-31T15:11:21;18.40;87.60
1155;DHT22;566;48.414;9.118;2022-10-31T15:13:49;18.00;89.60
1155;DHT22;566;48.414;9.118;2022-10-31T15:16:35;17.90;91.00
1155;DHT22;566;48.414;9.118;2022-10-31T15:19:09;17.80;91.10
1155;DHT22;566;48.414;9.118;2022-10-31T15:21:35;17.50;91.50
1155;DHT22;566;48.414;9.118;2022-10-31T15:24:12;17.20;92.60
1155;DHT22;566;48.414;9.118;2022-10-31T15:26:48;17.00;93.70
1155;DHT22;566;48.414;9.118;2022-10-31T15:29:19;17.30;93.50
1155;DHT22;566;48.414;9.118;2022-10-31T15:31:54;17.70;92.10
1155;DHT22;566;48.414;9.118;2022-10-31T15:34:34;17.70;91.80
1155;DHT22;566;48.414;9.118;2022-10-31T15:37:02;17.70;91.60
1155;DHT22;566;48.414;9.118;2022-10-31T15:39:29;17.40;92.10
1155;DHT22;566;48.414;9.118;2022-10-31T15:41:56;16.90;93.00
1155;DHT22;566;48.414;9.118;2022-10-31T15:44:35;16.50;93.90
1155;DHT22;566;48.414;9.118;2022-10-31T15:47:04;16.10;95.00
1155;DHT22;566;48.414;9.118;2022-10-31T15:50:05;15.90;95.40
1155;DHT22;566;48.414;9.118;2022-10-31T15:52:43;15.80;96.00
1155;DHT22;566;48.414;9.118;2022-10-31T15:57:43;15.50;96.80
1155;DHT22;566;48.414;9.118;2022-10-31T16:00:27;15.40;97.10
1155;DHT22;566;48.414;9.118;2022-10-31T16:05:45;15.10;97.20
1155;DHT22;566;48.414;9.118;2022-10-31T16:08:45;15.00;97.50
1155;DHT22;566;48.414;9.118;2022-10-31T16:13:55;14.90;97.50
1155;DHT22;566;48.414;9.118;2022-10-31T16:16:22;14.80;97.50
1155;DHT22;566;48.414;9.118;2022-10-31T16:18:50;14.70;97.50
1155;DHT22;566;48.414;9.118;2022-10-31T16:21:27;14.40;97.60
1155;DHT22;566;48.414;9.118;2022-10-31T16:24:00;14.20;97.50
1155;DHT22;566;48.414;9.118;2022-10-31T16:26:26;13.90;97.80
1155;DHT22;566;48.414;9.118;2022-10-31T16:28:57;13.90;98.00
1155;DHT22;566;48.414;9.118;2022-10-31T16:31:28;14.00;98.00
1155;DHT22;566;48.414;9.118;2022-10-31T16:34:20;14.00;97.80
1155;DHT22;566;48.414;9.118;2022-10-31T16:36:46;13.90;97.80
1155;DHT22;566;48.414;9.118;2022-10-31T16:39:12;13.60;97.80
1155;DHT22;566;48.414;9.118;2022-10-31T16:41:43;13.20;97.90
1155;DHT22;566;48.414;9.118;2022-10-31T16:44:24;13.00;98.00
1155;DHT22;566;48.414;9.118;2022-10-31T16:47:14;12.90;98.00
1155;DHT22;566;48.414;9.118;2022-10-31T16:49:42;12.80;97.90
1155;DHT22;566;48.414;9.118;2022-10-31T16:52:07;12.60;97.70
1155;DHT22;566;48.414;9.118;2022-10-31T16:54:35;12.40;97.40
1155;DHT22;566;48.414;9.118;2022-10-31T16:57:02;12.30;97.20
1155;DHT22;566;48.414;9.118;2022-10-31T16:59:29;12.20;97.20
1155;DHT22;566;48.414;9.118;2022-10-31T17:01:56;12.10;97.10
1155;DHT22;566;48.414;9.118;2022-10-31T17:04:24;12.00;96.70
1155;DHT22;566;48.414;9.118;2022-10-31T17:06:49;12.10;97.30
1155;DHT22;566;48.414;9.118;2022-10-31T17:09:16;12.10;97.40
1155;DHT22;566;48.414;9.118;2022-10-31T17:11:47;12.10;97.90
1155;DHT22;566;48.414;9.118;2022-10-31T17:14:14;12.00;97.80
1155;DHT22;566;48.414;9.118;2022-10-31T17:16:43;12.00;97.90
1155;DHT22;566;48.414;9.118;2022-10-31T17:19:12;12.00;98.00
1155;DHT22;566;48.414;9.118;2022-10-31T17:21:38;12.00;98.00
1155;DHT22;566;48.414;9.118;2022-10-31T17:24:04;12.10;98.00
1155;DHT22;566;48.414;9.118;2022-10-31T17:26:30;12.20;98.00
1155;DHT22;566;48.414;9.118;2022-10-31T17:28:56;12.30;98.00
1155;DHT22;566;48.414;9.118;2022-10-31T17:31:26;12.40;98.00
1155;DHT22;566;48.414;9.118;2022-10-31T17:33:54;12.70;98.00
1155;DHT22;566;48.414;9.118;2022-10-31T17:36:21;12.80;98.00
1155;DHT22;566;48.414;9.118;2022-10-31T17:38:46;12.80;98.00
1155;DHT22;566;48.414;9.118;2022-10-31T17:41:12;12.80;98.00
1155;DHT22;566;48.414;9.118;2022-10-31T17:43:38;12.90;98.00
1155;DHT22;566;48.414;9.118;2022-10-31T17:46:05;12.90;98.00
1155;DHT22;566;48.414;9.118;2022-10-31T17:48:50;12.80;98.00
1155;DHT22;566;48.414;9.118;2022-10-31T17:51:20;12.60;98.00
1155;DHT22;566;48.414;9.118;2022-10-31T17:53:47;12.60;98.00
1155;DHT22;566;48.414;9.118;2022-10-31T17:56:12;12.70;98.00
1155;DHT22;566;48.414;9.118;2022-10-31T17:58:38;12.80;98.00
1155;DHT22;566;48.414;9.118;2022-10-31T18:01:15;12.60;98.00
1155;DHT22;566;48.414;9.118;2022-10-31T18:03:41;12.50;98.00
1155;DHT22;566;48.414;9.118;2022-10-31T18:06:07;12.50;98.00
1155;DHT22;566;48.414;9.118;2022-10-31T18:08:37;12.50;98.00
1155;DHT22;566;48.414;9.118;2022-10-31T18:11:15;12.60;98.00
1155;DHT22;566;48.414;9.118;2022-10-31T18:13:41;12.50;98.00
1155;DHT22;566;48.414;9.118;2022-10-31T18:16:13;12.50;98.00
1155;DHT22;566;48.414;9.118;2022-10-31T18:18:39;12.50;98.00
1155;DHT22;566;48.414;9.118;2022-10-31T18:21:05;12.70;98.00
1155;DHT22;566;48.414;9.118;2022-10-31T18:23:31;12.80;98.00
1155;DHT22;566;48.414;9.118;2022-10-31T18:25:56;12.90;98.00
1155;DHT22;566;48.414;9.118;2022-10-31T18:28:22;12.90;98.00
1155;DHT22;566;48.414;9.118;2022-10-31T18:30:48;12.90;98.00
1155;DHT22;566;48.414;9.118;2022-10-31T18:33:13;12.90;98.00
1155;DHT22;566;48.414;9.118;2022-10-31T18:35:43;12.90;98.00
1155;DHT22;566;48.414;9.118;2022-10-31T18:38:08;13.00;98.00
1155;DHT22;566;48.414;9.118;2022-10-31T18:40:34;13.50;96.00
1155;DHT22;566;48.414;9.118;2022-10-31T18:43:01;13.80;94.90
1155;DHT22;566;48.414;9.118;2022-10-31T18:45:26;13.90;95.00
1155;DHT22;566;48.414;9.118;2022-10-31T18:47:52;13.90;94.50
1155;DHT22;566;48.414;9.118;2022-10-31T18:50:19;14.00;94.30
1155;DHT22;566;48.414;9.118;2022-10-31T18:52:45;14.10;93.70